createdAt,value
2023-05-08T00:02:57.196Z,2.65
2023-05-08T00:05:58.760Z,2.83
2023-05-08T00:09:00.285Z,2.03
2023-05-08T00:12:01.804Z,4.38
2023-05-08T00:15:04.824Z,11.40
2023-05-08T00:18:06.300Z,4.75
2023-05-08T00:21:07.912Z,3.13
2023-05-08T00:24:09.412Z,2.05
2023-05-08T00:27:11.038Z,2.30
2023-05-08T00:30:14.356Z,5.78
2023-05-08T00:33:16.436Z,4.95
2023-05-08T00:36:17.986Z,3.38
2023-05-08T00:39:19.463Z,1.90
2023-05-08T00:42:21.353Z,2.97
2023-05-08T00:45:22.872Z,3.15
2023-05-08T00:48:25.439Z,3.63
2023-05-08T00:51:27.866Z,2.70
2023-05-08T00:54:29.888Z,4.13
2023-05-08T00:57:35.459Z,4.43
2023-05-08T01:00:39.077Z,2.75
2023-05-08T01:03:40.805Z,3.47
2023-05-08T01:06:42.495Z,4.07
2023-05-08T01:09:43.977Z,7.75
2023-05-08T01:13:16.485Z,9.50
2023-05-08T01:16:46.613Z,9.07
2023-05-08T01:20:17.850Z,4.47
2023-05-08T01:23:53.778Z,4.25
2023-05-08T01:27:13.417Z,10.23
2023-05-08T01:30:51.972Z,8.65
2023-05-08T01:34:06.225Z,6.80
2023-05-08T01:37:12.497Z,5.45
2023-05-08T01:40:40.746Z,4.68
2023-05-08T01:43:55.478Z,5.05
2023-05-08T01:46:58.047Z,4.90
2023-05-08T01:50:18.386Z,4.85
2023-05-08T01:53:30.260Z,5.30
2023-05-08T01:56:32.847Z,5.70
2023-05-08T01:59:37.012Z,7.07
2023-05-08T02:02:38.676Z,5.57
2023-05-08T02:05:43.225Z,4.40
2023-05-08T02:08:46.267Z,6.50
2023-05-08T02:11:49.847Z,3.45
2023-05-08T02:14:55.683Z,4.82
2023-05-08T02:17:59.163Z,2.97
2023-05-08T02:21:04.043Z,5.20
2023-05-08T02:24:06.268Z,4.10
2023-05-08T02:27:10.387Z,5.30
2023-05-08T02:30:16.717Z,2.78
2023-05-08T02:33:19.182Z,3.63
2023-05-08T02:36:22.952Z,4.85
2023-05-08T02:39:30.235Z,5.90
2023-05-08T02:42:31.964Z,5.57
2023-05-08T02:45:43.625Z,6.65
2023-05-08T02:48:57.228Z,3.92
2023-05-08T02:52:13.843Z,5.97
2023-05-08T02:55:30.834Z,3.53
2023-05-08T02:58:55.316Z,5.10
2023-05-08T03:02:12.252Z,3.85
2023-05-08T03:05:20.546Z,4.25
2023-05-08T03:08:30.677Z,7.00
2023-05-08T03:11:39.070Z,6.57
2023-05-08T03:14:45.906Z,4.22
2023-05-08T03:17:52.742Z,6.82
2023-05-08T03:20:57.968Z,5.50
2023-05-08T03:24:03.140Z,6.35
2023-05-08T03:27:06.155Z,5.35
2023-05-08T03:30:09.697Z,2.90
2023-05-08T03:33:14.289Z,2.95
2023-05-08T03:36:16.056Z,3.97
2023-05-08T03:39:17.662Z,2.83
2023-05-08T03:42:22.289Z,3.90
2023-05-08T03:45:24.964Z,3.90
2023-05-08T03:48:27.684Z,6.60
2023-05-08T03:51:29.488Z,5.97
2023-05-08T03:54:31.842Z,6.00
2023-05-08T03:57:42.872Z,6.45
2023-05-08T04:01:32.783Z,3.35
2023-05-08T04:04:39.990Z,4.82
2023-05-08T04:07:50.794Z,3.75
2023-05-08T04:11:06.648Z,4.88
2023-05-08T04:14:13.400Z,5.53
2023-05-08T04:17:22.552Z,5.43
2023-05-08T04:20:27.326Z,6.18
2023-05-08T04:23:29.940Z,5.18
2023-05-08T04:29:35.576Z,3.73
2023-05-08T04:32:41.734Z,4.95
2023-05-08T04:35:46.149Z,4.47
2023-05-08T04:38:48.098Z,9.18
2023-05-08T04:41:51.356Z,7.45
2023-05-08T04:44:54.808Z,7.15
2023-05-08T04:47:56.564Z,8.20
2023-05-08T04:50:58.355Z,7.45
2023-05-08T04:54:00.436Z,9.40
2023-05-08T04:57:02.823Z,7.05
2023-05-08T05:00:06.126Z,3.50
2023-05-08T05:03:14.276Z,2.95
2023-05-08T05:06:16.023Z,7.72
2023-05-08T05:09:17.730Z,5.30
2023-05-08T05:12:19.260Z,5.85
2023-05-08T05:15:20.836Z,6.40
2023-05-08T05:18:22.758Z,6.78
2023-05-08T05:21:26.005Z,7.88
2023-05-08T05:24:27.735Z,8.57
2023-05-08T05:27:29.249Z,7.65
2023-05-08T05:30:30.848Z,7.65
2023-05-08T05:33:32.769Z,8.15
2023-05-08T05:36:34.639Z,5.90
2023-05-08T05:39:37.731Z,8.65
2023-05-08T05:42:39.730Z,7.47
2023-05-08T05:45:42.116Z,8.00
2023-05-08T05:48:43.625Z,7.40
2023-05-08T05:51:45.576Z,8.02
2023-05-08T05:54:47.258Z,7.85
2023-05-08T05:57:48.900Z,8.20
2023-05-08T06:00:51.354Z,7.68
2023-05-08T06:03:53.991Z,7.10
2023-05-08T06:06:55.540Z,7.30
2023-05-08T06:09:57.098Z,9.77
2023-05-08T06:12:59.181Z,6.03
2023-05-08T06:16:01.311Z,6.75
2023-05-08T06:19:02.964Z,7.93
2023-05-08T06:22:05.289Z,5.93
2023-05-08T06:25:08.353Z,6.53
2023-05-08T06:28:09.818Z,7.05
2023-05-08T06:31:11.426Z,6.65
2023-05-08T06:34:13.193Z,5.03
2023-05-08T06:37:14.848Z,6.72
2023-05-08T06:40:16.497Z,6.47
2023-05-08T06:43:18.257Z,6.65
2023-05-08T06:46:19.893Z,6.85
2023-05-08T06:49:22.915Z,7.82
2023-05-08T06:52:25.672Z,7.60
2023-05-08T06:55:27.307Z,8.98
2023-05-08T06:58:30.492Z,8.73
2023-05-08T07:01:32.319Z,10.07
2023-05-08T07:04:33.947Z,7.40
2023-05-08T07:07:35.826Z,7.28
2023-05-08T07:10:37.275Z,7.43
2023-05-08T07:13:38.805Z,6.57
2023-05-08T07:16:40.741Z,8.88
2023-05-08T07:19:42.386Z,5.03
2023-05-08T07:22:43.917Z,8.43
2023-05-08T07:25:46.057Z,8.23
2023-05-08T07:28:47.969Z,8.70
2023-05-08T07:31:49.624Z,6.70
2023-05-08T07:34:51.172Z,6.38
2023-05-08T07:37:52.731Z,7.38
2023-05-08T07:40:58.248Z,7.55
2023-05-08T07:43:59.776Z,6.72
2023-05-08T07:47:01.288Z,8.73
2023-05-08T07:50:03.411Z,6.90
2023-05-08T07:53:04.894Z,6.88
2023-05-08T07:56:06.545Z,7.47
2023-05-08T07:59:07.957Z,9.02
2023-05-08T08:02:09.494Z,9.95
2023-05-08T08:05:11.821Z,6.88
2023-05-08T08:08:14.103Z,7.47
2023-05-08T08:11:15.769Z,5.63
2023-05-08T08:14:17.351Z,5.10
2023-05-08T08:17:18.941Z,4.82
2023-05-08T08:20:23.348Z,4.88
2023-05-08T08:23:25.280Z,4.30
2023-05-08T08:26:26.880Z,3.28
2023-05-08T08:29:28.513Z,4.60
2023-05-08T08:32:30.834Z,3.88
2023-05-08T08:35:33.229Z,3.42
2023-05-08T08:38:34.662Z,4.03
2023-05-08T08:41:36.199Z,4.05
2023-05-08T08:44:39.292Z,3.30
2023-05-08T08:47:44.830Z,2.67
2023-05-08T08:50:50.942Z,5.05
2023-05-08T08:54:03.106Z,4.40
2023-05-08T08:57:09.247Z,3.20
2023-05-08T09:00:12.107Z,3.35
2023-05-08T09:03:14.517Z,4.03
2023-05-08T09:06:17.122Z,2.60
2023-05-08T09:09:18.688Z,2.33
2023-05-08T09:12:20.162Z,2.58
2023-05-08T09:15:22.080Z,2.72
2023-05-08T09:18:23.623Z,2.45
2023-05-08T09:21:25.542Z,2.58
2023-05-08T09:24:55.941Z,2.53
2023-05-08T09:28:15.582Z,2.40
2023-05-08T09:31:17.290Z,2.90
2023-05-08T09:34:24.637Z,2.88
2023-05-08T09:37:27.320Z,3.22
2023-05-08T09:40:28.860Z,2.63
2023-05-08T09:43:30.460Z,5.05
2023-05-08T09:46:34.029Z,4.35
2023-05-08T09:49:35.495Z,3.53
2023-05-08T09:52:38.786Z,4.03
2023-05-08T09:58:49.115Z,3.13
2023-05-08T10:01:50.998Z,5.22
2023-05-08T10:04:52.859Z,3.80
2023-05-08T10:07:54.510Z,3.50
2023-05-08T10:11:13.384Z,4.72
2023-05-08T10:14:14.835Z,5.35
2023-05-08T10:17:25.193Z,4.90
2023-05-08T10:20:30.144Z,4.30
2023-05-08T10:23:34.386Z,5.63
2023-05-08T10:26:53.642Z,5.07
2023-05-08T10:30:04.751Z,4.28
2023-05-08T10:33:10.371Z,4.38
2023-05-08T10:36:13.270Z,4.65
2023-05-08T10:39:16.962Z,5.65
2023-05-08T10:42:19.080Z,4.82
2023-05-08T10:45:20.698Z,5.35
2023-05-08T10:48:32.005Z,4.22
2023-05-08T10:51:55.240Z,4.72
2023-05-08T10:55:04.719Z,6.45
2023-05-08T10:58:13.208Z,6.72
2023-05-08T11:01:16.254Z,5.10
2023-05-08T11:04:28.550Z,6.53
2023-05-08T11:07:50.610Z,6.97
2023-05-08T11:11:06.198Z,7.97
2023-05-08T11:14:07.630Z,6.00
2023-05-08T11:17:10.109Z,5.28
2023-05-08T11:20:11.950Z,7.95
2023-05-08T11:23:33.134Z,6.65
2023-05-08T11:26:40.641Z,7.47
2023-05-08T11:29:42.574Z,7.30
2023-05-08T11:33:05.337Z,5.05
2023-05-08T11:36:07.162Z,5.07
2023-05-08T11:39:15.401Z,6.35
2023-05-08T11:42:26.733Z,6.55
2023-05-08T11:45:28.274Z,7.65
2023-05-08T11:48:30.495Z,6.28
2023-05-08T11:51:33.401Z,5.97
2023-05-08T11:54:34.883Z,7.20
2023-05-08T11:57:36.655Z,5.40
2023-05-08T12:00:46.116Z,6.50
2023-05-08T12:03:47.863Z,7.00
2023-05-08T12:06:51.274Z,8.30
2023-05-08T12:09:53.781Z,8.20
2023-05-08T12:12:55.247Z,7.35
2023-05-08T12:15:59.480Z,6.78
2023-05-08T12:19:01.068Z,6.75
2023-05-08T12:22:02.580Z,8.05
2023-05-08T12:25:06.275Z,7.63
2023-05-08T12:28:08.708Z,8.05
2023-05-08T12:31:10.404Z,8.90
2023-05-08T12:34:12.523Z,10.60
2023-05-08T12:37:24.009Z,10.18
2023-05-08T12:40:31.354Z,9.10
2023-05-08T12:43:35.418Z,7.35
2023-05-08T12:46:37.332Z,9.60
2023-05-08T12:49:38.841Z,10.32
2023-05-08T12:52:40.811Z,11.70
2023-05-08T12:55:52.769Z,11.93
2023-05-08T12:58:59.538Z,8.63
2023-05-08T13:02:01.172Z,11.15
2023-05-08T13:05:04.792Z,10.50
2023-05-08T13:08:09.806Z,12.48
2023-05-08T13:11:12.499Z,12.10
2023-05-08T13:14:14.032Z,12.07
2023-05-08T13:17:18.900Z,13.40
2023-05-08T13:20:20.505Z,11.20
2023-05-08T13:23:22.561Z,10.13
2023-05-08T13:26:25.510Z,11.27
2023-05-08T13:29:27.092Z,9.63
2023-05-08T13:32:28.651Z,7.95
2023-05-08T13:35:30.506Z,10.57
2023-05-08T13:38:32.086Z,11.30
2023-05-08T13:41:33.553Z,13.43
2023-05-08T13:44:35.045Z,9.10
2023-05-08T13:47:37.132Z,11.32
2023-05-08T13:50:38.648Z,7.80
2023-05-08T13:53:40.206Z,8.75
2023-05-08T13:56:41.805Z,10.45
2023-05-08T13:59:43.378Z,8.73
2023-05-08T14:02:45.306Z,9.45
2023-05-08T14:05:47.283Z,10.50
2023-05-08T14:08:51.407Z,9.63
2023-05-08T14:11:53.111Z,8.98
2023-05-08T14:14:54.573Z,10.60
2023-05-08T14:17:56.024Z,11.80
2023-05-08T14:20:57.851Z,9.43
2023-05-08T14:23:59.297Z,11.35
2023-05-08T14:27:05.479Z,9.32
2023-05-08T14:30:07.828Z,12.70
2023-05-08T14:33:09.329Z,10.03
2023-05-08T14:36:10.863Z,9.90
2023-05-08T14:39:12.340Z,11.48
2023-05-08T14:42:22.909Z,11.05
2023-05-08T14:45:24.993Z,11.35
2023-05-08T14:48:27.490Z,8.70
2023-05-08T14:51:28.942Z,7.97
2023-05-08T14:54:30.655Z,8.05
2023-05-08T14:57:32.318Z,7.60
2023-05-08T15:00:33.775Z,7.50
2023-05-08T15:03:35.440Z,6.07
2023-05-08T15:06:40.040Z,4.85
2023-05-08T15:09:41.486Z,5.15
2023-05-08T15:12:42.928Z,6.30
2023-05-08T15:15:44.344Z,5.60
2023-05-08T15:18:45.842Z,5.07
2023-05-08T15:21:47.293Z,5.00
2023-05-08T15:24:48.684Z,5.38
2023-05-08T15:27:52.564Z,7.90
2023-05-08T15:30:54.076Z,7.85
2023-05-08T15:33:55.627Z,6.57
2023-05-08T15:36:57.054Z,9.35
2023-05-08T15:39:58.647Z,8.18
2023-05-08T15:43:00.670Z,6.63
2023-05-08T15:46:02.237Z,7.88
2023-05-08T15:49:04.442Z,7.18
2023-05-08T15:52:05.883Z,6.57
2023-05-08T15:55:07.839Z,7.82
2023-05-08T15:58:09.283Z,7.38
2023-05-08T16:01:10.852Z,6.88
2023-05-08T16:04:12.864Z,8.00
2023-05-08T16:07:14.282Z,8.07
2023-05-08T16:10:15.898Z,8.93
2023-05-08T16:13:17.417Z,6.72
2023-05-08T16:16:18.934Z,9.73
2023-05-08T16:19:20.354Z,8.82
2023-05-08T16:22:23.129Z,7.97
2023-05-08T16:25:26.014Z,6.32
2023-05-08T16:28:27.497Z,8.38
2023-05-08T16:31:29.022Z,7.20
2023-05-08T16:34:30.577Z,8.10
2023-05-08T16:37:32.018Z,7.65
2023-05-08T16:40:33.494Z,7.82
2023-05-08T16:43:34.914Z,7.13
2023-05-08T16:46:36.412Z,9.70
2023-05-08T16:49:37.833Z,7.28
2023-05-08T16:52:39.261Z,6.60
2023-05-08T16:55:41.178Z,7.57
2023-05-08T16:58:43.235Z,6.45
2023-05-08T17:01:44.884Z,8.27
2023-05-08T17:04:49.764Z,6.50
2023-05-08T17:07:51.454Z,7.35
2023-05-08T17:10:54.083Z,5.85
2023-05-08T17:13:55.532Z,6.80
2023-05-08T17:16:57.019Z,7.20
2023-05-08T17:19:58.655Z,7.40
2023-05-08T17:23:00.800Z,5.20
2023-05-08T17:26:02.255Z,4.20
2023-05-08T17:29:03.864Z,5.28
2023-05-08T17:32:05.556Z,4.75
2023-05-08T17:35:07.494Z,5.63
2023-05-08T17:38:09.185Z,5.07
2023-05-08T17:41:10.667Z,5.72
2023-05-08T17:44:12.107Z,3.35
2023-05-08T17:47:13.605Z,5.38
2023-05-08T17:50:15.187Z,4.38
2023-05-08T17:53:16.828Z,4.60
2023-05-08T17:56:20.430Z,4.50
2023-05-08T17:59:21.966Z,4.18
2023-05-08T18:02:23.513Z,4.78
2023-05-08T18:05:25.240Z,3.78
2023-05-08T18:08:26.731Z,3.88
2023-05-08T18:11:28.218Z,4.20
2023-05-08T18:14:31.669Z,4.88
2023-05-08T18:17:33.311Z,6.53
2023-05-08T18:20:34.999Z,5.13
2023-05-08T18:23:36.774Z,3.33
2023-05-08T18:26:38.291Z,3.20
2023-05-08T18:29:39.904Z,4.20
2023-05-08T18:32:44.115Z,3.40
2023-05-08T18:35:46.053Z,4.15
2023-05-08T18:38:47.562Z,4.18
2023-05-08T18:41:50.119Z,5.30
2023-05-08T18:44:51.686Z,5.50
2023-05-08T18:47:56.422Z,4.07
2023-05-08T18:50:58.636Z,3.42
2023-05-08T18:54:00.669Z,3.77
2023-05-08T18:57:02.552Z,4.65
2023-05-08T19:00:05.235Z,4.35
2023-05-08T19:03:06.979Z,3.92
2023-05-08T19:06:15.021Z,5.20
2023-05-08T19:09:18.695Z,4.68
2023-05-08T19:15:21.843Z,5.10
2023-05-08T19:18:24.301Z,3.70
2023-05-08T19:21:26.045Z,5.27
2023-05-08T19:24:29.968Z,4.15
2023-05-08T19:27:32.159Z,4.10
2023-05-08T19:30:39.263Z,5.55
2023-05-08T19:33:41.001Z,5.45
2023-05-08T19:36:42.658Z,5.85
2023-05-08T19:44:53.352Z,6.28
2023-05-08T19:47:58.271Z,7.97
2023-05-08T19:51:10.916Z,5.72
2023-05-08T19:54:13.301Z,5.18
2023-05-08T19:57:17.037Z,5.85
2023-05-08T20:03:30.894Z,4.97
2023-05-08T20:06:32.939Z,6.88
2023-05-08T20:09:34.911Z,6.88
2023-05-08T20:12:50.214Z,4.50
2023-05-08T20:16:02.490Z,5.38
2023-05-08T20:19:04.617Z,6.28
2023-05-08T20:22:17.470Z,4.05
2023-05-08T20:25:22.538Z,5.03
2023-05-08T20:28:30.107Z,5.35
2023-05-08T20:31:34.956Z,5.50
2023-05-08T20:34:39.331Z,5.28
2023-05-08T20:37:50.506Z,4.38
2023-05-08T20:40:55.791Z,4.70
2023-05-08T20:44:02.682Z,4.07
2023-05-08T20:47:05.423Z,4.38
2023-05-08T20:50:08.650Z,3.65
2023-05-08T20:53:16.994Z,3.92
2023-05-08T20:56:20.095Z,4.90
2023-05-08T20:59:24.361Z,5.57
2023-05-08T21:02:26.888Z,3.80
2023-05-08T21:05:28.959Z,3.10
2023-05-08T21:08:31.304Z,4.68
2023-05-08T21:11:33.787Z,4.28
2023-05-08T21:14:36.838Z,4.80
2023-05-08T21:17:38.743Z,5.68
2023-05-08T21:20:40.679Z,4.97
2023-05-08T21:23:42.657Z,4.88
2023-05-08T21:26:44.236Z,4.75
2023-05-08T21:29:45.830Z,3.63
2023-05-08T21:32:47.419Z,5.95
2023-05-08T21:35:49.033Z,4.50
2023-05-08T21:38:51.953Z,4.78
2023-05-08T21:41:53.432Z,5.38
2023-05-08T21:44:55.230Z,3.78
2023-05-08T21:47:57.463Z,5.95
2023-05-08T21:50:59.407Z,5.30
2023-05-08T21:54:01.366Z,4.13
2023-05-08T21:57:02.911Z,5.72
2023-05-08T22:00:06.951Z,6.72
2023-05-08T22:03:08.689Z,5.50
2023-05-08T22:06:10.229Z,5.38
2023-05-08T22:09:11.954Z,5.13
2023-05-08T22:12:13.497Z,4.90
2023-05-08T22:15:28.531Z,3.00
2023-05-08T22:18:31.586Z,4.07
2023-05-08T22:21:33.058Z,3.90
2023-05-08T22:24:34.508Z,4.75
2023-05-08T22:27:36.017Z,5.80
2023-05-08T22:30:37.558Z,7.55
2023-05-08T22:33:39.136Z,6.00
2023-05-08T22:36:40.653Z,6.95
2023-05-08T22:39:42.133Z,5.00
2023-05-08T22:42:44.531Z,5.10
2023-05-08T22:45:46.076Z,7.40
2023-05-08T22:48:47.812Z,7.38
2023-05-08T22:51:50.968Z,6.55
2023-05-08T22:54:52.687Z,5.90
2023-05-08T22:57:54.162Z,7.70
2023-05-08T23:00:55.863Z,7.57
2023-05-08T23:03:57.535Z,4.65
2023-05-08T23:06:59.062Z,4.43
2023-05-08T23:10:00.642Z,5.57
2023-05-08T23:13:02.208Z,5.68
2023-05-08T23:16:03.980Z,5.25
2023-05-08T23:19:05.489Z,5.28
2023-05-08T23:22:06.944Z,6.50
2023-05-08T23:25:12.274Z,6.75
2023-05-08T23:28:14.177Z,5.50
2023-05-08T23:31:16.915Z,5.68
2023-05-08T23:34:18.417Z,6.22
2023-05-08T23:37:19.918Z,7.47
2023-05-08T23:40:21.436Z,5.63
2023-05-08T23:43:22.993Z,6.35
2023-05-08T23:46:24.826Z,4.57
2023-05-08T23:49:26.435Z,4.60
2023-05-08T23:52:27.972Z,6.15
2023-05-08T23:55:29.951Z,5.53
2023-05-08T23:58:31.520Z,9.25
